METAR AND TAF INFORMATION
METAR FOR RJAA
ADDS - METARS form results

(0208 UTC 15 July 2020)
Data provider http://aviationweather.gov/metar/data/
 
METAR text: RJAA 150200Z 06006KT 360V080 9999 -SHRA FEW004 BKN007 BKN025 21/20 Q1001 BECMG 05008KT
Conditions at: RJAA (NARITA INTL , JP) observed 0200 UTC 15 July 2020
Temperature: 21.0°C (70°F)
Dewpoint: 20.0°C (68°F) [RH = 94%]
Pressure (altimeter): 29.56 inches Hg (1001.0 mb)
Winds: from the ENE (60 degrees) at 7 MPH (6 knots; 3.1 m/s)
Visibility: 6 or more miles (10+ km)
Ceiling: 700 feet AGL
Clouds: few clouds at 400 feet AGL
broken clouds at 700 feet AGL
broken clouds at 2500 feet AGL
Weather: -SHRA  (light rain showers)

METAR text: RJAA 150143Z 05005KT 350V090 9999 -SHRA FEW004 BKN007 BKN025 21/20 Q1000 RMK 1ST004 5ST007 7CU025 A2956
Conditions at: RJAA (NARITA INTL , JP) observed 0143 UTC 15 July 2020
Temperature: 21.0°C (70°F)
Dewpoint: 20.0°C (68°F) [RH = 94%]
Pressure (altimeter): 29.53 inches Hg (1000.0 mb)
Winds: from the NE (50 degrees) at 6 MPH (5 knots; 2.6 m/s)
Visibility: 6 or more miles (10+ km)
Ceiling: 700 feet AGL
Clouds: few clouds at 400 feet AGL
broken clouds at 700 feet AGL
broken clouds at 2500 feet AGL
Weather: -SHRA  (light rain showers)

METAR text: RJAA 150130Z 06006KT 020V090 5000 -SHRA BR FEW004 SCT009 BKN025 20/19 Q1000 BECMG 05008KT TEMPO 4500 -SHRA BR FEW003 BKN005
Conditions at: RJAA (NARITA INTL , JP) observed 0130 UTC 15 July 2020
Temperature: 20.0°C (68°F)
Dewpoint: 19.0°C (66°F) [RH = 94%]
Pressure (altimeter): 29.53 inches Hg (1000.0 mb)
Winds: from the ENE (60 degrees) at 7 MPH (6 knots; 3.1 m/s)
Visibility: 3 miles ( 5 km)
Ceiling: 2500 feet AGL
Clouds: few clouds at 400 feet AGL
scattered clouds at 900 feet AGL
broken clouds at 2500 feet AGL
Weather: -SHRA BR  (light rain showers, mist)

METAR text: RJAA 150121Z 05005KT 010V110 5000 -SHRA BR FEW004 SCT007 BKN025 20/20 Q1000 RMK 1ST004 3ST007 7CU025 A2955
Conditions at: RJAA (NARITA INTL , JP) observed 0121 UTC 15 July 2020
Temperature: 20.0°C (68°F)
Dewpoint: 20.0°C (68°F) [RH = 100%]
Pressure (altimeter): 29.53 inches Hg (1000.0 mb)
Winds: from the NE (50 degrees) at 6 MPH (5 knots; 2.6 m/s)
Visibility: 3 miles ( 5 km)
Ceiling: 2500 feet AGL
Clouds: few clouds at 400 feet AGL
scattered clouds at 700 feet AGL
broken clouds at 2500 feet AGL
Weather: -SHRA BR  (light rain showers, mist)

Forecast for: RJAA (NARITA INTL , JP)
Text: TAF RJAA 142305Z 1500/1606 05010KT 9999 FEW010 BKN020
Forecast period: 0000 to 1000 UTC 15 July 2020
Forecast type: FROM: standard forecast or significant change
Winds: from the NE (50 degrees) at 12 MPH (10 knots; 5.1 m/s)
Visibility: 6 or more miles 10+ km)
Ceiling: 2000 feet AGL
Clouds: few clouds at 1000 feet AGL
broken clouds at 2000 feet AGL
Weather: no significant weather forecast for this period
Text: TEMPO 1500/1503 4000 -SHRA BR FEW003 BKN005
Forecast period: 0000 to 0300 UTC 15 July 2020
Forecast type: TEMPORARY: The following changes expected for less than half the time period
Visibility: 2.49 miles (4.01 km)
Ceiling: 500 feet AGL
Clouds: few clouds at 300 feet AGL
broken clouds at 500 feet AGL
Weather: -SHRA BR  (light rain showers, mist)
Text: BECMG 1510/1512 FEW005 BKN008
Forecast period: 1000 to 2100 UTC 15 July 2020
Forecast type: BECOMING: Conditions expected to become as follows by 1200 UTC 15 July 2020
Winds: from the NE (50 degrees) at 12 MPH (10 knots; 5.1 m/s)
Visibility: 6 or more miles 10+ km)
Ceiling: 800 feet AGL
Clouds: few clouds at 500 feet AGL
broken clouds at 800 feet AGL
Weather: no significant weather forecast for this period
Text: TEMPO 1512/1518 4000 -RA BR FEW003 BKN005
Forecast period: 1200 to 1800 UTC 15 July 2020
Forecast type: TEMPORARY: The following changes expected for less than half the time period
Visibility: 2.49 miles (4.01 km)
Ceiling: 500 feet AGL
Clouds: few clouds at 300 feet AGL
broken clouds at 500 feet AGL
Weather: -RA BR  (light rain, mist)
Text: BECMG 1521/1600 FEW010 BKN020
Forecast period: 2100 UTC 15 July 2020 to 0600 UTC 16 July 2020
Forecast type: BECOMING: Conditions expected to become as follows by 0000 UTC 16 July 2020
Winds: from the NE (50 degrees) at 12 MPH (10 knots; 5.1 m/s)
Visibility: 6 or more miles 10+ km)
Ceiling: 2000 feet AGL
Clouds: few clouds at 1000 feet AGL
broken clouds at 2000 feet AGL
Weather: no significant weather forecast for this period

 AIRPORT MAP

 RUNWAY INFORMATION
Runway 16L Runway length 7152 ft Runway width 196 ft
Runway elevation 135 ft Runway displaced threshold 190 ft Runway heading 150
Runway 34R Runway length 7152 ft Runway width 196 ft
Runway elevation 141 ft Runway displaced threshold 190 ft Runway heading 330
Runway 16R Runway length 13123 ft Runway width 196 ft
Runway elevation 130 ft Runway displaced threshold 0 ft Runway heading 150
Runway 34L Runway length 13123 ft Runway width 196 ft
Runway elevation 139 ft Runway displaced threshold 2460 ft Runway heading 330

 AIRPORT FREQUENCIES
Type APP Name TOKYO APP Frequency 124.4 MHZ
Type ATIS Name ATIS Frequency 128.25 MHZ
Type CLD Name CLNC DEL Frequency 121.9 MHZ
Type CLR Name CLNC DEL Frequency 121.65 MHZ
Type DEP Name TOKYO DEP Frequency 124.2 MHZ
Type GND Name Frequency 121.85 MHZ
Type GND Name GND Frequency 121.95 MHZ
Type RDR Name TOKYO RDR Frequency 120.2 MHZ
Type RMP Name RAMP Frequency 121.6 MHZ
Type RMP Name RAMP Frequency 121.75 MHZ
Type TCA Name TOKYO TCA Frequency 119.45 MHZ
Type TWR Name TWR Frequency 118.2 MHZ
Type TWR Name Frequency 118.35 MHZ

 AIRPORT NEAR NAVIGATION AIDS
Type VOR-DME Name Narita Frequency 117900 KHZ
Type VOR-DME Name Sakura Frequency 112700 KHZ



Powered by Virtual Airlines Manager [[v2.6.2]]